createdAt,value
2022-09-07T00:01:18.168Z,23.01
2022-09-07T00:03:46.663Z,23.03
2022-09-07T00:06:15.694Z,23.04
2022-09-07T00:08:44.293Z,23.06
2022-09-07T00:11:15.027Z,23.08
2022-09-07T00:13:45.012Z,23.12
2022-09-07T00:16:20.161Z,23.16
2022-09-07T00:18:51.005Z,23.18
2022-09-07T00:21:20.051Z,23.18
2022-09-07T00:23:50.129Z,23.17
2022-09-07T00:26:23.725Z,23.12
2022-09-07T00:28:52.662Z,23.12
2022-09-07T00:31:23.071Z,23.13
2022-09-07T00:33:53.320Z,23.14
2022-09-07T00:36:22.707Z,23.14
2022-09-07T00:38:51.477Z,23.14
2022-09-07T00:41:21.023Z,23.18
2022-09-07T00:43:55.676Z,23.15
2022-09-07T00:46:35.319Z,23.13
2022-09-07T00:49:12.644Z,23.10
2022-09-07T00:51:55.036Z,22.93
2022-09-07T00:54:28.137Z,22.90
2022-09-07T00:56:56.549Z,22.83
2022-09-07T00:59:30.653Z,22.79
2022-09-07T01:01:59.336Z,22.81
2022-09-07T01:04:30.139Z,22.82
2022-09-07T01:06:59.732Z,22.81
2022-09-07T01:09:30.363Z,22.69
2022-09-07T01:12:01.132Z,22.65
2022-09-07T01:14:41.206Z,22.64
2022-09-07T01:17:21.551Z,22.57
2022-09-07T01:20:02.036Z,22.55
2022-09-07T01:22:49.085Z,22.54
2022-09-07T01:25:29.074Z,22.57
2022-09-07T01:28:21.579Z,22.60
2022-09-07T01:30:56.170Z,22.61
2022-09-07T01:33:36.394Z,22.59
2022-09-07T01:36:26.993Z,22.56
2022-09-07T01:38:58.914Z,22.55
2022-09-07T01:41:52.034Z,22.52
2022-09-07T01:44:35.049Z,22.53
2022-09-07T01:47:25.842Z,22.56
2022-09-07T01:50:29.114Z,22.64
2022-09-07T01:53:28.510Z,22.68
2022-09-07T01:56:11.483Z,22.72
2022-09-07T01:58:43.447Z,22.71
2022-09-07T02:01:16.918Z,22.67
2022-09-07T02:04:10.825Z,22.67
2022-09-07T02:06:56.093Z,22.64
2022-09-07T02:09:35.936Z,22.60
2022-09-07T02:12:13.438Z,22.53
2022-09-07T02:14:51.890Z,22.47
2022-09-07T02:17:28.732Z,22.47
2022-09-07T02:20:04.734Z,22.44
2022-09-07T02:22:37.840Z,22.38
2022-09-07T02:25:07.568Z,22.32
2022-09-07T02:27:50.657Z,22.32
2022-09-07T02:30:18.941Z,22.30
2022-09-07T02:32:47.427Z,22.32
2022-09-07T02:35:15.851Z,22.32
2022-09-07T02:37:45.562Z,22.37
2022-09-07T02:40:14.883Z,22.44
2022-09-07T02:42:44.995Z,22.48
2022-09-07T02:45:16.305Z,22.43
2022-09-07T02:47:56.400Z,22.25
2022-09-07T02:50:50.401Z,22.08
2022-09-07T02:53:33.751Z,22.02
2022-09-07T02:56:14.096Z,21.93
2022-09-07T02:59:09.355Z,21.88
2022-09-07T03:02:00.896Z,21.90
2022-09-07T03:04:35.006Z,21.93
2022-09-07T03:07:33.604Z,21.96
2022-09-07T03:10:06.814Z,22.00
2022-09-07T03:12:46.946Z,22.05
2022-09-07T03:15:18.227Z,22.12
2022-09-07T03:17:46.902Z,22.12
2022-09-07T03:20:18.906Z,22.03
2022-09-07T03:22:48.737Z,21.99
2022-09-07T03:25:17.467Z,21.98
2022-09-07T03:27:46.317Z,21.98
2022-09-07T03:30:15.365Z,21.99
2022-09-07T03:32:44.997Z,22.00
2022-09-07T03:35:15.608Z,22.00
2022-09-07T03:37:44.093Z,21.99
2022-09-07T03:40:15.108Z,21.99
2022-09-07T03:42:47.552Z,21.97
2022-09-07T03:45:15.951Z,21.91
2022-09-07T03:47:47.196Z,21.87
2022-09-07T03:50:15.518Z,21.84
2022-09-07T03:52:44.361Z,21.83
2022-09-07T03:55:12.727Z,21.84
2022-09-07T03:57:40.993Z,21.91
2022-09-07T04:00:09.823Z,21.96
2022-09-07T04:02:41.272Z,21.89
2022-09-07T04:05:10.029Z,21.85
2022-09-07T04:07:38.493Z,21.83
2022-09-07T04:10:07.271Z,21.85
2022-09-07T04:12:35.490Z,21.84
2022-09-07T04:15:03.868Z,21.83
2022-09-07T04:17:32.103Z,21.83
2022-09-07T04:20:00.381Z,21.84
2022-09-07T04:22:28.624Z,21.80
2022-09-07T04:24:56.862Z,21.70
2022-09-07T04:27:25.128Z,21.62
2022-09-07T04:29:53.415Z,21.59
2022-09-07T04:32:21.667Z,21.52
2022-09-07T04:34:51.972Z,21.52
2022-09-07T04:37:20.192Z,21.53
2022-09-07T04:39:48.678Z,21.48
2022-09-07T04:42:17.037Z,21.50
2022-09-07T04:44:45.294Z,21.46
2022-09-07T04:47:13.612Z,21.46
2022-09-07T04:49:41.855Z,21.50
2022-09-07T04:52:10.176Z,21.51
2022-09-07T04:54:38.664Z,21.52
2022-09-07T04:57:06.870Z,21.56
2022-09-07T04:59:35.087Z,21.58
2022-09-07T05:02:03.612Z,21.59
2022-09-07T05:04:31.946Z,21.61
2022-09-07T05:07:00.216Z,21.64
2022-09-07T05:09:28.427Z,21.70
2022-09-07T05:11:56.693Z,21.74
2022-09-07T05:14:24.945Z,21.74
2022-09-07T05:16:53.173Z,21.80
2022-09-07T05:19:21.567Z,21.73
2022-09-07T05:21:49.885Z,21.71
2022-09-07T05:24:18.311Z,21.78
2022-09-07T05:26:46.569Z,21.83
2022-09-07T05:32:03.109Z,21.91
2022-09-07T05:34:31.806Z,22.01
2022-09-07T05:37:01.342Z,22.10
2022-09-07T05:39:29.914Z,22.18
2022-09-07T05:41:58.275Z,22.26
2022-09-07T05:47:13.522Z,22.44
2022-09-07T05:49:41.930Z,22.52
2022-09-07T05:52:10.493Z,22.58
2022-09-07T05:54:39.097Z,22.65
2022-09-07T05:57:07.806Z,22.74
2022-09-07T05:59:36.038Z,22.85
2022-09-07T06:02:05.334Z,22.97
2022-09-07T06:04:33.738Z,23.15
2022-09-07T06:07:21.015Z,23.23
2022-09-07T06:12:38.443Z,23.42
2022-09-07T06:15:07.285Z,23.49
2022-09-07T06:17:35.646Z,23.55
2022-09-07T06:20:04.747Z,23.62
2022-09-07T06:22:36.663Z,23.69
2022-09-07T06:25:05.723Z,23.79
2022-09-07T06:27:34.255Z,24.11
2022-09-07T06:30:02.571Z,24.43
2022-09-07T06:32:46.199Z,24.76
2022-09-07T06:35:15.720Z,25.40
2022-09-07T06:37:44.101Z,25.98
2022-09-07T06:40:13.013Z,26.10
2022-09-07T06:42:41.537Z,26.59
2022-09-07T06:45:12.026Z,26.91
2022-09-07T06:47:40.759Z,26.86
2022-09-07T06:50:09.890Z,26.92
2022-09-07T06:55:27.943Z,27.04
2022-09-07T06:57:56.245Z,27.13
2022-09-07T07:00:24.647Z,27.11
2022-09-07T07:02:53.073Z,27.14
2022-09-07T07:05:21.361Z,27.15
2022-09-07T07:07:49.590Z,27.27
2022-09-07T07:10:22.194Z,27.25
2022-09-07T07:12:57.330Z,27.17
2022-09-07T07:15:28.477Z,27.24
2022-09-07T07:18:05.077Z,27.56
2022-09-07T07:20:39.288Z,27.71
2022-09-07T07:23:08.158Z,27.94
2022-09-07T07:25:37.015Z,27.95
2022-09-07T07:30:58.492Z,28.32
2022-09-07T07:33:31.766Z,28.32
2022-09-07T07:36:15.386Z,28.49
2022-09-07T07:39:00.894Z,28.74
2022-09-07T07:44:20.647Z,29.65
2022-09-07T07:46:50.451Z,30.82
2022-09-07T07:49:19.135Z,31.39
2022-09-07T07:54:39.584Z,31.48
2022-09-07T07:57:08.340Z,31.85
2022-09-07T07:59:36.773Z,31.89
2022-09-07T08:02:13.754Z,31.12
2022-09-07T08:04:42.277Z,30.63
2022-09-07T08:07:12.112Z,29.32
2022-09-07T08:09:42.909Z,28.99
2022-09-07T08:12:13.627Z,28.64
2022-09-07T08:14:42.160Z,28.82
2022-09-07T08:17:12.535Z,29.15
2022-09-07T08:19:41.009Z,29.49
2022-09-07T08:22:11.294Z,29.74
2022-09-07T08:24:41.847Z,29.77
2022-09-07T08:27:10.020Z,29.92
2022-09-07T08:29:38.443Z,30.41
2022-09-07T08:32:06.939Z,30.27
2022-09-07T08:34:38.323Z,30.02
2022-09-07T08:37:06.415Z,30.22
2022-09-07T08:39:34.513Z,30.40
2022-09-07T08:42:35.637Z,30.81
2022-09-07T08:45:10.507Z,30.81
2022-09-07T08:47:45.739Z,30.58
2022-09-07T08:50:47.586Z,30.28
2022-09-07T08:53:19.827Z,30.66
2022-09-07T08:56:10.193Z,30.80
2022-09-07T08:58:49.569Z,30.94
2022-09-07T09:04:29.422Z,31.00
2022-09-07T09:06:11.249Z,30.98
2022-09-07T09:07:08.784Z,31.07
2022-09-07T09:09:58.529Z,30.76
2022-09-07T09:12:58.364Z,30.80
2022-09-07T09:15:52.380Z,29.94
2022-09-07T09:18:23.532Z,29.75
2022-09-07T09:20:58.151Z,29.65
2022-09-07T09:23:39.348Z,29.60
2022-09-07T09:26:11.365Z,29.82
2022-09-07T09:28:39.778Z,29.87
2022-09-07T09:31:28.014Z,30.11
2022-09-07T09:34:19.138Z,30.23
2022-09-07T09:36:50.998Z,29.87
2022-09-07T09:39:36.990Z,29.97
2022-09-07T09:42:23.251Z,30.18
2022-09-07T09:44:54.408Z,30.10
2022-09-07T09:47:33.055Z,29.31
2022-09-07T09:53:27.838Z,29.80
2022-09-07T09:55:56.460Z,29.76
2022-09-07T10:01:33.672Z,29.82
2022-09-07T10:04:34.836Z,30.07
2022-09-07T10:07:17.579Z,30.26
2022-09-07T10:09:51.331Z,30.39
2022-09-07T10:12:33.146Z,30.67
2022-09-07T10:15:08.346Z,30.58
2022-09-07T10:17:41.608Z,30.49
2022-09-07T10:20:16.011Z,30.42
2022-09-07T10:22:54.378Z,30.62
2022-09-07T10:25:44.257Z,30.62
2022-09-07T10:28:16.472Z,30.55
2022-09-07T10:31:08.079Z,30.69
2022-09-07T10:33:42.317Z,30.76
2022-09-07T10:36:16.236Z,30.72
2022-09-07T10:38:59.552Z,30.20
2022-09-07T10:41:37.343Z,30.55
2022-09-07T10:44:14.959Z,30.58
2022-09-07T10:47:03.748Z,30.64
2022-09-07T10:49:34.862Z,30.77
2022-09-07T10:52:33.536Z,30.61
2022-09-07T10:55:28.649Z,30.65
2022-09-07T10:59:01.035Z,30.81
2022-09-07T11:01:24.490Z,30.67
2022-09-07T11:04:01.791Z,30.37
2022-09-07T11:06:44.177Z,29.85
2022-09-07T11:09:43.020Z,30.09
2022-09-07T11:12:23.786Z,30.00
2022-09-07T11:15:26.314Z,30.26
2022-09-07T11:18:12.968Z,30.36
2022-09-07T11:20:58.918Z,30.47
2022-09-07T11:23:41.476Z,30.66
2022-09-07T11:26:34.193Z,31.18
2022-09-07T11:29:33.416Z,31.30
2022-09-07T11:32:17.422Z,31.27
2022-09-07T11:35:01.223Z,31.17
2022-09-07T11:37:48.132Z,31.33
2022-09-07T11:40:36.380Z,31.44
2022-09-07T11:43:30.182Z,31.45
2022-09-07T11:46:08.062Z,31.52
2022-09-07T11:48:43.525Z,31.66
2022-09-07T11:51:39.762Z,31.51
2022-09-07T11:54:40.950Z,31.44
2022-09-07T11:57:37.061Z,31.38
2022-09-07T12:00:24.157Z,31.20
2022-09-07T12:03:04.384Z,31.00
2022-09-07T12:05:38.227Z,30.82
2022-09-07T12:08:15.732Z,30.80
2022-09-07T12:10:58.981Z,31.01
2022-09-07T12:13:53.304Z,31.31
2022-09-07T12:16:33.310Z,31.50
2022-09-07T12:19:24.022Z,31.65
2022-09-07T12:21:53.065Z,31.59
2022-09-07T12:24:38.998Z,31.76
2022-09-07T12:27:11.398Z,31.88
2022-09-07T12:29:45.111Z,31.86
2022-09-07T12:35:33.529Z,31.97
2022-09-07T12:38:03.711Z,31.51
2022-09-07T12:40:34.608Z,31.57
2022-09-07T12:43:14.890Z,31.36
2022-09-07T12:45:43.071Z,31.44
2022-09-07T12:48:17.943Z,31.65
2022-09-07T12:54:13.104Z,31.13
2022-09-07T12:57:32.116Z,31.16
2022-09-07T13:00:13.091Z,31.21
2022-09-07T13:02:44.247Z,31.20
2022-09-07T13:05:50.011Z,31.28
2022-09-07T13:08:20.922Z,31.33
2022-09-07T13:10:49.568Z,31.18
2022-09-07T13:16:27.498Z,31.04
2022-09-07T13:18:55.780Z,30.60
2022-09-07T13:21:33.506Z,30.64
2022-09-07T13:27:40.682Z,30.16
2022-09-07T13:30:15.181Z,30.11
2022-09-07T13:35:34.846Z,30.22
2022-09-07T13:38:04.780Z,30.38
2022-09-07T13:40:38.085Z,30.32
2022-09-07T13:43:13.795Z,30.21
2022-09-07T13:45:54.082Z,30.08
2022-09-07T13:48:49.052Z,30.24
2022-09-07T13:51:34.935Z,30.40
2022-09-07T13:54:33.038Z,30.42
2022-09-07T13:57:23.556Z,30.49
2022-09-07T13:59:55.408Z,30.62
2022-09-07T14:02:27.600Z,30.48
2022-09-07T14:05:00.809Z,30.27
2022-09-07T14:07:31.080Z,30.13
2022-09-07T14:10:26.221Z,29.82
2022-09-07T14:13:02.047Z,29.74
2022-09-07T14:15:41.738Z,29.73
2022-09-07T14:18:22.395Z,29.78
2022-09-07T14:20:53.046Z,29.73
2022-09-07T14:23:30.220Z,29.61
2022-09-07T14:26:20.050Z,29.63
2022-09-07T14:28:51.275Z,29.65
2022-09-07T14:31:22.250Z,29.52
2022-09-07T14:33:59.509Z,29.73
2022-09-07T14:36:46.450Z,29.66
2022-09-07T14:39:17.726Z,29.67
2022-09-07T14:41:46.981Z,29.54
2022-09-07T14:44:32.087Z,29.66
2022-09-07T14:47:07.647Z,29.64
2022-09-07T14:49:36.093Z,29.62
2022-09-07T14:52:05.240Z,29.51
2022-09-07T14:54:34.925Z,29.42
2022-09-07T14:57:06.236Z,29.61
2022-09-07T14:59:43.046Z,29.67
2022-09-07T15:02:24.523Z,29.59
2022-09-07T15:05:16.048Z,29.59
2022-09-07T15:07:50.327Z,29.53
2022-09-07T15:10:21.480Z,29.56
2022-09-07T15:12:58.551Z,29.57
2022-09-07T15:15:40.857Z,29.62
2022-09-07T15:18:51.860Z,29.66
2022-09-07T15:21:21.385Z,29.56
2022-09-07T15:23:54.633Z,29.57
2022-09-07T15:29:16.108Z,29.64
2022-09-07T15:31:56.869Z,29.48
2022-09-07T15:34:27.772Z,29.45
2022-09-07T15:37:00.142Z,29.14
2022-09-07T15:39:34.463Z,29.06
2022-09-07T15:44:53.564Z,28.87
2022-09-07T15:50:10.733Z,28.73
2022-09-07T15:52:39.129Z,28.65
2022-09-07T15:55:08.822Z,28.56
2022-09-07T15:58:05.183Z,28.48
2022-09-07T16:00:25.621Z,28.51
2022-09-07T16:03:09.605Z,28.56
2022-09-07T16:05:41.218Z,28.58
2022-09-07T16:08:25.342Z,28.64
2022-09-07T16:10:55.188Z,28.61
2022-09-07T16:13:24.456Z,28.54
2022-09-07T16:15:52.811Z,28.49
2022-09-07T16:18:20.951Z,28.48
2022-09-07T16:20:52.717Z,28.49
2022-09-07T16:23:21.318Z,28.33
2022-09-07T16:26:00.135Z,28.25
2022-09-07T16:28:28.801Z,28.19
2022-09-07T16:30:57.784Z,28.13
2022-09-07T16:33:33.088Z,28.10
2022-09-07T16:36:13.196Z,28.07
2022-09-07T16:38:48.520Z,28.05
2022-09-07T16:41:37.419Z,28.02
2022-09-07T16:44:05.700Z,27.98
2022-09-07T16:46:36.964Z,27.90
2022-09-07T16:49:07.110Z,27.87
2022-09-07T16:51:35.599Z,27.80
2022-09-07T16:54:04.859Z,27.79
2022-09-07T16:56:38.252Z,27.73
2022-09-07T16:59:09.712Z,27.68
2022-09-07T17:01:40.909Z,27.60
2022-09-07T17:04:11.291Z,27.50
2022-09-07T17:06:43.393Z,27.46
2022-09-07T17:09:14.841Z,27.41
2022-09-07T17:11:42.988Z,27.40
2022-09-07T17:14:11.177Z,27.31
2022-09-07T17:16:40.831Z,27.24
2022-09-07T17:22:01.260Z,27.19
2022-09-07T17:24:32.364Z,27.22
2022-09-07T17:27:01.202Z,27.23
2022-09-07T17:29:32.922Z,27.23
2022-09-07T17:34:51.625Z,27.15
2022-09-07T17:37:19.808Z,27.05
2022-09-07T17:39:47.924Z,27.01
2022-09-07T17:42:16.935Z,26.94
2022-09-07T17:44:45.067Z,26.92
2022-09-07T17:47:13.270Z,26.87
2022-09-07T17:49:41.358Z,26.85
2022-09-07T17:52:09.679Z,26.78
2022-09-07T17:54:37.815Z,26.72
2022-09-07T17:57:06.020Z,26.64
2022-09-07T18:02:25.398Z,26.52
2022-09-07T18:04:53.782Z,26.42
2022-09-07T18:07:22.004Z,26.37
2022-09-07T18:09:50.220Z,26.29
2022-09-07T18:12:18.391Z,26.21
2022-09-07T18:14:46.549Z,26.16
2022-09-07T18:17:14.669Z,26.13
2022-09-07T18:19:43.547Z,26.08
2022-09-07T18:22:11.877Z,26.08
2022-09-07T18:24:40.224Z,26.03
2022-09-07T18:27:08.668Z,26.01
2022-09-07T18:29:37.339Z,26.01
2022-09-07T18:32:09.512Z,26.03
2022-09-07T18:34:40.578Z,26.02
2022-09-07T18:37:12.123Z,26.02
2022-09-07T18:39:41.674Z,26.05
2022-09-07T18:42:10.317Z,26.03
2022-09-07T18:47:31.426Z,26.05
2022-09-07T18:49:59.727Z,26.01
2022-09-07T18:55:16.832Z,25.93
2022-09-07T18:57:45.065Z,25.94
2022-09-07T19:00:14.085Z,25.87
2022-09-07T19:02:42.442Z,25.85
2022-09-07T19:07:59.767Z,25.82
2022-09-07T19:10:28.090Z,25.79
2022-09-07T19:12:56.678Z,25.76
2022-09-07T19:15:24.889Z,25.70
2022-09-07T19:17:52.978Z,25.62
2022-09-07T19:20:21.158Z,25.58
2022-09-07T19:22:49.394Z,25.52
2022-09-07T19:25:19.322Z,25.50
2022-09-07T19:27:47.479Z,25.42
2022-09-07T19:30:17.390Z,25.37
2022-09-07T19:32:45.571Z,25.33
2022-09-07T19:35:13.738Z,25.33
2022-09-07T19:37:42.203Z,25.35
2022-09-07T19:40:14.793Z,25.30
2022-09-07T19:42:45.333Z,25.26
2022-09-07T19:45:15.103Z,25.25
2022-09-07T19:47:43.303Z,25.20
2022-09-07T19:50:11.450Z,25.19
2022-09-07T19:52:39.629Z,25.16
2022-09-07T19:55:08.510Z,25.18
2022-09-07T19:57:36.684Z,25.12
2022-09-07T20:00:05.924Z,25.12
2022-09-07T20:02:40.530Z,25.09
2022-09-07T20:05:08.931Z,25.05
2022-09-07T20:07:37.043Z,25.06
2022-09-07T20:10:06.773Z,25.07
2022-09-07T20:12:34.996Z,25.14
2022-09-07T20:15:03.157Z,25.10
2022-09-07T20:17:35.063Z,25.10
2022-09-07T20:20:04.928Z,25.11
2022-09-07T20:22:33.026Z,25.05
2022-09-07T20:25:01.140Z,25.05
2022-09-07T20:27:30.636Z,25.00
2022-09-07T20:29:58.723Z,24.97
2022-09-07T20:32:28.233Z,24.96
2022-09-07T20:34:57.242Z,24.93
2022-09-07T20:37:31.396Z,24.94
2022-09-07T20:39:59.605Z,24.95
2022-09-07T20:42:27.664Z,24.96
2022-09-07T20:44:55.848Z,24.93
2022-09-07T20:47:24.011Z,24.91
2022-09-07T20:49:52.209Z,24.92
2022-09-07T20:52:20.315Z,24.89
2022-09-07T20:54:48.451Z,24.88
2022-09-07T20:57:16.869Z,24.85
2022-09-07T20:59:44.944Z,24.85
2022-09-07T21:02:13.848Z,24.83
2022-09-07T21:04:43.387Z,24.81
2022-09-07T21:07:11.518Z,24.80
2022-09-07T21:09:39.976Z,24.75
2022-09-07T21:12:08.215Z,24.76
2022-09-07T21:14:36.282Z,24.73
2022-09-07T21:17:04.420Z,24.75
2022-09-07T21:19:32.485Z,24.68
2022-09-07T21:22:00.902Z,24.63
2022-09-07T21:24:28.941Z,24.61
2022-09-07T21:26:57.003Z,24.58
2022-09-07T21:29:25.685Z,24.59
2022-09-07T21:31:55.049Z,24.58
2022-09-07T21:34:23.666Z,24.58
2022-09-07T21:36:52.306Z,24.59
2022-09-07T21:39:21.472Z,24.57
2022-09-07T21:41:49.727Z,24.61
2022-09-07T21:44:18.181Z,24.59
2022-09-07T21:46:46.633Z,24.53
2022-09-07T21:49:14.790Z,24.56
2022-09-07T21:51:42.939Z,24.56
2022-09-07T21:54:11.025Z,24.55
2022-09-07T21:56:43.118Z,24.58
2022-09-07T21:59:16.400Z,24.62
2022-09-07T22:01:44.531Z,24.63
2022-09-07T22:04:13.531Z,24.59
2022-09-07T22:06:41.731Z,24.61
2022-09-07T22:09:09.786Z,24.54
2022-09-07T22:11:37.861Z,24.52
2022-09-07T22:14:10.972Z,24.51
2022-09-07T22:16:39.391Z,24.52
2022-09-07T22:19:07.470Z,24.51
2022-09-07T22:21:35.634Z,24.44
2022-09-07T22:24:05.986Z,24.39
2022-09-07T22:26:39.795Z,24.39
2022-09-07T22:29:10.957Z,24.41
2022-09-07T22:31:39.934Z,24.48
2022-09-07T22:34:09.491Z,24.50
2022-09-07T22:36:41.448Z,24.44
2022-09-07T22:39:16.597Z,24.44
2022-09-07T22:41:45.910Z,24.40
2022-09-07T22:44:16.607Z,24.37
2022-09-07T22:46:46.595Z,24.39
2022-09-07T22:49:16.939Z,24.41
2022-09-07T22:51:45.576Z,24.38
2022-09-07T22:54:14.082Z,24.34
2022-09-07T22:56:42.565Z,24.35
2022-09-07T22:59:11.998Z,24.34
2022-09-07T23:01:40.878Z,24.34
2022-09-07T23:04:10.596Z,24.38
2022-09-07T23:06:41.370Z,24.37
2022-09-07T23:09:15.233Z,24.34
2022-09-07T23:11:44.413Z,24.31
2022-09-07T23:14:18.160Z,24.27
2022-09-07T23:16:47.046Z,24.24
2022-09-07T23:19:17.129Z,24.23
2022-09-07T23:21:45.431Z,24.20
2022-09-07T23:24:16.263Z,24.21
2022-09-07T23:26:44.632Z,24.26
2022-09-07T23:29:14.500Z,24.31
2022-09-07T23:31:44.882Z,24.31
2022-09-07T23:34:12.986Z,24.32
2022-09-07T23:36:41.070Z,24.34
2022-09-07T23:39:09.605Z,24.26
2022-09-07T23:41:37.739Z,24.21
2022-09-07T23:44:05.913Z,24.19
2022-09-07T23:46:34.981Z,24.19
2022-09-07T23:49:03.364Z,24.21
2022-09-07T23:51:31.407Z,24.28
2022-09-07T23:53:59.679Z,24.32
2022-09-07T23:56:28.027Z,24.37
2022-09-07T23:58:56.046Z,24.40
